Time;durP1;ratioP1;P1;durP2;ratioP2;P2;SDS_P1;SDS_P2;PMS_P1;PMS_P2;Temp;Humidity;BMP_temperature;BMP_pressure;BME280_temperature;BME280_humidity;BME280_pressure;Samples;Min_cycle;Max_cycle;Signal;HPM_P1;HPM_P2
2022/12/28 00:02:16;;;;;;;9.25;4.60;;;;;;;11.67;66.59;101578.94;5003403;28;20102;-69
2022/12/28 00:04:42;;;;;;;14.73;5.20;;;;;;;12.20;65.82;101565.97;5007963;28;20046;-70
2022/12/28 00:07:07;;;;;;;8.30;4.60;;;;;;;12.28;65.47;101554.94;5003354;28;20042;-69
2022/12/28 00:09:33;;;;;;;17.38;5.38;;;;;;;11.79;66.74;101560.22;5004361;28;20041;-70
2022/12/28 00:11:58;;;;;;;13.80;6.10;;;;;;;12.48;64.83;101547.50;4991245;28;20494;-68
2022/12/28 00:14:24;;;;;;;15.48;5.00;;;;;;;11.90;66.04;101543.38;5006107;28;20423;-69
2022/12/28 00:16:49;;;;;;;8.50;4.65;;;;;;;12.05;65.52;101535.81;5003756;28;20050;-70
2022/12/28 00:19:15;;;;;;;12.63;4.82;;;;;;;11.76;67.23;101537.25;4988672;28;20047;-68
2022/12/28 00:21:45;;;;;;;6.70;4.35;;;;;;;11.89;66.29;101531.75;5004261;28;20117;-69
2022/12/28 00:24:21;;;;;;;11.65;4.90;;;;;;;11.83;66.68;101516.47;5005762;28;20490;-68
2022/12/28 00:26:47;;;;;;;11.00;4.60;;;;;;;11.52;67.10;101521.78;5011693;28;20077;-69
2022/12/28 00:29:12;;;;;;;19.00;5.00;;;;;;;11.71;67.51;101517.38;5012746;28;20072;-67
2022/12/28 00:31:38;;;;;;;14.77;4.88;;;;;;;11.88;66.55;101511.28;5012459;28;20501;-69
2022/12/28 00:34:03;;;;;;;11.57;4.78;;;;;;;12.15;65.96;101507.34;5012990;28;20034;-68
2022/12/28 00:36:30;;;;;;;9.95;3.88;;;;;;;11.06;69.11;101495.09;5012428;28;20036;-69
2022/12/28 00:38:56;;;;;;;15.93;5.40;;;;;;;12.13;66.19;101474.41;5012523;28;20041;-71
2022/12/28 00:41:21;;;;;;;12.20;5.43;;;;;;;11.88;66.90;101473.56;5012485;28;20030;-69
2022/12/28 00:43:47;;;;;;;12.57;5.38;;;;;;;12.00;66.40;101466.44;5012501;28;20081;-69
2022/12/28 00:46:12;;;;;;;12.73;5.68;;;;;;;11.71;67.66;101468.94;5012878;28;20401;-70
2022/12/28 00:48:38;;;;;;;20.05;6.07;;;;;;;11.37;68.62;101454.81;5012214;28;20034;-68
2022/12/28 00:51:06;;;;;;;10.77;5.07;;;;;;;12.31;65.93;101450.22;5011228;28;20081;-69
2022/12/28 00:53:32;;;;;;;11.63;5.47;;;;;;;11.35;68.21;101448.81;5012017;28;20153;-69
2022/12/28 00:56:12;;;;;;;12.32;5.40;;;;;;;12.66;65.19;101445.06;5011985;28;20405;-69
2022/12/28 00:58:37;;;;;;;11.95;5.93;;;;;;;12.21;65.96;101443.66;5012187;28;20052;-68
2022/12/28 01:01:04;;;;;;;18.70;6.30;;;;;;;11.96;66.24;101427.53;5012527;28;20022;-69
2022/12/28 01:03:30;;;;;;;15.10;5.47;;;;;;;11.78;67.33;101413.16;5011706;28;20042;-68
2022/12/28 01:05:55;;;;;;;17.98;6.30;;;;;;;12.44;65.45;101408.84;5008717;28;20088;-69
2022/12/28 01:08:21;;;;;;;13.10;5.40;;;;;;;12.24;66.41;101383.97;5011613;28;20041;-67
2022/12/28 01:10:47;;;;;;;9.38;5.13;;;;;;;11.87;67.14;101379.53;5011768;28;20053;-68
2022/12/28 01:13:12;;;;;;;13.00;6.43;;;;;;;11.84;66.90;101371.88;4994681;28;20289;-68
2022/12/28 01:15:38;;;;;;;16.35;6.10;;;;;;;11.51;67.48;101372.13;5011942;28;20044;-68
2022/12/28 01:18:03;;;;;;;13.93;6.03;;;;;;;12.57;64.27;101364.72;5011335;28;20092;-69
2022/12/28 01:20:29;;;;;;;11.57;4.88;;;;;;;11.42;67.97;101381.50;5011303;28;20041;-68
2022/12/28 01:22:54;;;;;;;12.05;5.30;;;;;;;12.84;63.86;101371.44;5010422;28;20061;-70
2022/12/28 01:25:20;;;;;;;10.45;5.95;;;;;;;12.47;64.69;101370.63;5011388;28;20028;-68
2022/12/28 01:27:45;;;;;;;9.88;5.28;;;;;;;12.72;64.57;101370.53;5011795;28;20476;-69
2022/12/28 01:30:13;;;;;;;13.82;4.93;;;;;;;12.45;65.10;101353.88;5011419;28;20565;-68
2022/12/28 01:32:38;;;;;;;14.05;5.50;;;;;;;11.85;67.67;101360.88;5011417;28;20030;-69
2022/12/28 01:35:04;;;;;;;11.20;4.90;;;;;;;12.03;65.92;101339.38;5011442;28;20117;-68
2022/12/28 01:37:29;;;;;;;12.95;5.13;;;;;;;12.10;66.59;101336.63;5011580;28;20037;-67
2022/12/28 01:39:55;;;;;;;10.65;4.65;;;;;;;12.10;66.44;101333.94;5011712;28;20128;-68
2022/12/28 01:42:20;;;;;;;13.85;5.43;;;;;;;12.31;65.76;101338.88;5013791;28;20105;-70
2022/12/28 01:44:50;;;;;;;17.17;6.47;;;;;;;11.75;67.42;101336.34;5011167;28;20141;-68
2022/12/28 01:47:20;;;;;;;9.43;4.32;;;;;;;12.05;66.21;101337.28;5011149;28;20034;-69
2022/12/28 01:49:53;;;;;;;14.07;5.13;;;;;;;12.44;65.62;101343.31;5011185;28;20037;-67
2022/12/28 01:52:28;;;;;;;8.93;4.90;;;;;;;12.29;65.71;101333.72;4995489;28;20542;-69
2022/12/28 01:55:06;;;;;;;14.82;5.35;;;;;;;11.87;66.56;101313.03;5011329;28;20129;-70
2022/12/28 01:57:41;;;;;;;8.10;3.90;;;;;;;11.37;69.07;101320.28;5010877;28;20093;-70
2022/12/28 02:00:12;;;;;;;11.02;4.70;;;;;;;12.33;65.61;101302.59;5010676;28;20128;-70
2022/12/28 02:02:42;;;;;;;9.77;4.97;;;;;;;12.32;65.72;101298.22;5010817;28;20435;-68
2022/12/28 02:05:08;;;;;;;9.68;5.05;;;;;;;12.20;66.11;101293.84;5010911;28;20049;-70
2022/12/28 02:08:03;;;;;;;10.70;5.03;;;;;;;12.36;66.79;101285.16;5010415;28;20057;-69
2022/12/28 02:10:30;;;;;;;8.38;5.53;;;;;;;12.11;67.57;101279.00;4995880;28;20050;-69
2022/12/28 02:12:56;;;;;;;6.30;4.45;;;;;;;11.82;68.37;101282.41;5011109;28;20026;-69
2022/12/28 02:15:21;;;;;;;8.65;5.50;;;;;;;11.98;67.54;101282.69;5010840;28;20069;-70
2022/12/28 02:17:47;;;;;;;15.30;5.63;;;;;;;12.03;67.76;101258.56;5025694;28;20447;-69
2022/12/28 02:20:13;;;;;;;14.20;5.90;;;;;;;11.98;68.01;101263.00;5010571;28;20160;-69
2022/12/28 02:23:11;;;;;;;13.30;4.97;;;;;;;12.12;68.22;101261.81;5010342;28;20034;-70
2022/12/28 02:26:25;;;;;;;7.93;5.95;;;;;;;11.63;69.38;101261.88;5010310;28;20505;-70
2022/12/28 02:29:16;;;;;;;10.80;5.57;;;;;;;12.02;68.13;101248.03;4949375;28;20070;-69
2022/12/28 02:31:46;;;;;;;;;;;;;;;12.18;68.39;101244.75;4950198;28;20118;-68
2022/12/28 02:34:27;;;;;;;15.85;5.70;;;;;;;12.03;68.36;101228.13;4949007;28;19969;-69
2022/12/28 02:36:59;;;;;;;18.83;6.45;;;;;;;11.83;69.82;101230.22;4949617;29;20138;-68
2022/12/28 02:39:40;;;;;;;16.15;5.40;;;;;;;12.18;68.66;101205.16;4949487;28;20043;-67
2022/12/28 02:42:08;;;;;;;9.40;5.10;;;;;;;11.92;69.69;101196.56;4951932;28;20062;-67
2022/12/28 02:50:07;;;;;;;10.93;4.75;;;;;;;11.62;70.85;101193.75;4949851;28;20054;-69
2022/12/28 02:52:58;;;;;;;12.60;4.88;;;;;;;11.56;71.10;101202.72;4949098;28;20508;-69
2022/12/28 02:58:37;;;;;;;11.13;6.35;;;;;;;11.92;70.51;101186.63;4949891;28;20050;-67
2022/12/28 03:01:27;;;;;;;7.37;4.47;;;;;;;11.41;73.71;101195.00;4950215;29;20039;-68
2022/12/28 03:04:13;;;;;;;8.45;4.80;;;;;;;11.93;70.86;101190.94;4951222;28;21017;-68
2022/12/28 03:09:52;;;;;;;7.80;5.32;;;;;;;12.27;70.25;101170.63;5010460;28;20053;-69
2022/12/28 03:12:28;;;;;;;7.95;5.43;;;;;;;12.29;69.57;101182.00;5010100;28;20042;-67
2022/12/28 03:15:02;;;;;;;9.93;5.93;;;;;;;12.08;70.93;101167.16;5011423;28;20181;-69
2022/12/28 03:31:28;;;;;;;7.75;5.55;;;;;;;12.34;70.87;101149.81;5013513;28;20052;-70
2022/12/28 03:34:05;;;;;;;9.50;5.68;;;;;;;11.76;72.87;101151.38;5013927;28;20034;-69
2022/12/28 03:36:58;;;;;;;11.40;5.13;;;;;;;11.76;73.30;101137.94;5013768;28;20124;-69
2022/12/28 03:39:35;;;;;;;8.57;4.50;;;;;;;11.85;72.65;101141.97;5013687;28;20038;-69
2022/12/28 03:45:22;;;;;;;5.95;4.55;;;;;;;11.90;73.67;101124.09;5013734;28;20132;-68
2022/12/28 03:47:50;;;;;;;7.63;4.53;;;;;;;11.56;73.88;101131.94;5012938;28;20078;-69
2022/12/28 03:50:18;;;;;;;6.40;4.50;;;;;;;12.14;72.67;101117.75;5013414;28;20096;-70
2022/12/28 03:52:43;;;;;;;5.25;3.80;;;;;;;11.90;73.46;101113.31;5013238;28;20501;-68
2022/12/28 03:55:12;;;;;;;5.30;4.20;;;;;;;12.10;73.02;101115.75;5014258;28;20133;-68
2022/12/28 03:57:37;;;;;;;7.90;4.43;;;;;;;11.98;73.23;101122.94;5013497;28;20048;-68
2022/12/28 04:00:03;;;;;;;11.75;3.97;;;;;;;11.98;73.42;101113.00;5013632;28;20046;-69
2022/12/28 04:02:29;;;;;;;5.53;4.30;;;;;;;12.25;72.43;101118.84;5013192;28;20045;-68
2022/12/28 04:04:54;;;;;;;3.78;3.35;;;;;;;11.84;74.09;101113.38;5013662;28;20121;-68
2022/12/28 04:07:19;;;;;;;3.92;3.20;;;;;;;11.89;72.87;101111.66;5013499;28;20411;-69
2022/12/28 04:09:45;;;;;;;4.53;3.42;;;;;;;11.91;74.24;101114.94;5013335;28;20479;-68
2022/12/28 04:12:11;;;;;;;4.63;3.78;;;;;;;11.69;75.12;101103.03;5013612;28;20042;-68
2022/12/28 04:14:36;;;;;;;7.18;4.05;;;;;;;12.18;74.03;101096.56;5013018;28;20048;-70
2022/12/28 04:17:02;;;;;;;5.45;4.28;;;;;;;12.56;71.84;101091.59;5013341;28;20129;-68
2022/12/28 04:19:27;;;;;;;6.18;4.22;;;;;;;12.19;73.32;101090.94;5013430;28;20030;-69
2022/12/28 04:21:52;;;;;;;5.28;4.78;;;;;;;12.36;72.88;101085.72;5013419;28;20029;-69
2022/12/28 04:24:18;;;;;;;8.27;5.00;;;;;;;12.57;72.11;101081.66;4995176;28;20034;-69
2022/12/28 04:26:43;;;;;;;8.98;4.63;;;;;;;11.74;76.02;101075.41;5013234;28;20116;-69
2022/12/28 04:29:08;;;;;;;4.93;4.43;;;;;;;12.06;75.31;101068.75;5013187;28;20063;-70
2022/12/28 04:31:34;;;;;;;8.07;4.78;;;;;;;12.41;73.52;101071.53;5012569;28;20276;-68
2022/12/28 04:33:59;;;;;;;6.63;4.80;;;;;;;12.53;73.39;101069.69;5013102;28;20462;-68
2022/12/28 04:36:25;;;;;;;6.05;4.72;;;;;;;12.30;74.57;101073.19;5012817;28;20042;-69
2022/12/28 04:38:50;;;;;;;7.07;5.88;;;;;;;12.49;73.66;101073.91;5012472;28;20049;-69
2022/12/28 04:41:16;;;;;;;8.45;6.25;;;;;;;12.29;75.05;101069.66;5012542;28;20041;-68
2022/12/28 04:43:42;;;;;;;6.45;5.57;;;;;;;12.36;73.46;101064.16;5012679;28;20049;-68
2022/12/28 04:46:13;;;;;;;8.07;6.22;;;;;;;12.00;75.92;101057.03;5013014;28;20030;-69
2022/12/28 04:48:38;;;;;;;6.32;5.72;;;;;;;12.62;73.85;101049.44;5012450;28;20101;-69
2022/12/28 04:51:09;;;;;;;7.60;6.60;;;;;;;12.23;74.89;101049.00;5012833;28;20038;-68
2022/12/28 04:53:37;;;;;;;9.20;7.10;;;;;;;12.76;72.85;101042.75;5012257;28;20034;-68
2022/12/28 04:56:03;;;;;;;6.93;5.85;;;;;;;12.32;75.07;101047.63;5012181;28;20033;-69
2022/12/28 04:58:29;;;;;;;7.30;6.60;;;;;;;12.72;73.19;101041.56;5012644;28;20104;-69
2022/12/28 05:01:01;;;;;;;10.30;7.60;;;;;;;12.78;73.63;101049.56;5011943;28;20112;-69
2022/12/28 05:03:26;;;;;;;7.65;6.78;;;;;;;12.50;74.77;101048.59;5011418;28;20057;-69
2022/12/28 05:05:52;;;;;;;12.05;7.28;;;;;;;12.69;74.19;101042.88;5011875;28;20076;-69
2022/12/28 05:08:17;;;;;;;9.35;6.95;;;;;;;12.67;73.56;101044.97;5011580;28;20042;-68
2022/12/28 05:10:42;;;;;;;8.60;7.47;;;;;;;12.78;73.79;101040.63;5011520;28;20034;-69
2022/12/28 05:13:08;;;;;;;9.55;6.90;;;;;;;12.93;73.09;101035.59;5012022;28;20244;-69
2022/12/28 05:15:33;;;;;;;9.20;8.15;;;;;;;12.85;73.90;101036.78;5012059;28;20121;-69
2022/12/28 05:17:58;;;;;;;7.88;6.25;;;;;;;12.50;75.43;101038.63;5011969;28;20038;-69
2022/12/28 05:20:24;;;;;;;10.52;7.20;;;;;;;12.67;74.46;101030.69;5012159;28;20134;-69
2022/12/28 05:22:49;;;;;;;9.60;7.55;;;;;;;12.71;74.61;101031.84;5011836;28;20122;-70
2022/12/28 05:25:15;;;;;;;9.60;8.13;;;;;;;13.07;73.89;101029.75;5012397;28;20098;-69
2022/12/28 05:27:40;;;;;;;9.00;6.57;;;;;;;13.13;73.41;101042.28;5011934;28;20421;-69
2022/12/28 05:30:06;;;;;;;9.75;8.38;;;;;;;12.60;75.27;101052.34;5012142;28;20053;-69
2022/12/28 05:32:32;;;;;;;8.15;6.82;;;;;;;12.23;77.10;101057.09;5011395;28;20030;-69
2022/12/28 05:34:57;;;;;;;11.10;8.10;;;;;;;12.39;77.20;101052.91;5011807;28;20121;-69
2022/12/28 05:37:22;;;;;;;8.32;7.53;;;;;;;12.81;75.23;101053.66;5011096;28;20116;-69
2022/12/28 05:39:48;;;;;;;9.55;7.75;;;;;;;13.24;73.01;101056.81;5012271;28;20105;-69
2022/12/28 05:42:13;;;;;;;8.13;6.60;;;;;;;12.76;75.32;101058.91;5026692;28;20041;-69
2022/12/28 05:44:38;;;;;;;11.82;7.93;;;;;;;12.99;74.12;101046.25;4993703;28;20529;-66
2022/12/28 05:47:04;;;;;;;8.63;6.55;;;;;;;12.45;77.13;101051.97;5011794;28;20445;-68
2022/12/28 05:49:29;;;;;;;8.32;7.47;;;;;;;12.84;75.65;101035.13;5011671;28;20525;-69
2022/12/28 05:51:54;;;;;;;12.55;7.93;;;;;;;13.00;75.60;101047.91;5012168;28;20241;-67
2022/12/28 05:54:20;;;;;;;8.15;7.32;;;;;;;12.70;76.42;101039.09;5011088;28;20037;-70
2022/12/28 05:56:49;;;;;;;8.05;7.05;;;;;;;12.71;76.15;101051.56;5011522;28;20498;-68
2022/12/28 05:59:15;;;;;;;9.50;8.50;;;;;;;12.94;74.77;101048.00;5011253;28;20410;-68
2022/12/28 06:01:42;;;;;;;9.82;7.60;;;;;;;12.66;76.54;101037.94;5011618;28;20037;-69
2022/12/28 06:04:15;;;;;;;13.70;10.70;;;;;;;13.15;74.38;101032.06;5011091;28;20033;-68
2022/12/28 06:06:41;;;;;;;9.50;8.23;;;;;;;12.94;75.94;101034.53;5010911;28;20037;-68
2022/12/28 06:09:07;;;;;;;13.77;8.90;;;;;;;13.07;75.87;101028.94;5011106;28;20042;-70
2022/12/28 06:11:33;;;;;;;14.65;9.80;;;;;;;12.80;76.28;101035.81;5011033;28;20048;-69
2022/12/28 06:13:59;;;;;;;9.27;7.53;;;;;;;12.98;76.17;101030.31;5011067;28;20046;-69
2022/12/28 06:16:27;;;;;;;12.15;10.23;;;;;;;13.37;74.05;101036.84;5010981;28;20044;-69
2022/12/28 06:18:53;;;;;;;13.27;10.40;;;;;;;13.49;74.07;101027.66;5011192;28;20532;-70
2022/12/28 06:21:27;;;;;;;14.15;9.85;;;;;;;13.38;73.80;101006.94;5011073;28;20030;-69
2022/12/28 06:23:56;;;;;;;13.45;10.45;;;;;;;13.56;74.04;101017.53;5010925;28;20057;-69
2022/12/28 06:26:22;;;;;;;11.13;9.60;;;;;;;12.93;75.75;101033.69;5010952;28;20045;-69
2022/12/28 06:28:49;;;;;;;10.73;9.63;;;;;;;12.75;76.76;101033.84;5011004;28;20142;-69
2022/12/28 06:31:23;;;;;;;11.40;9.10;;;;;;;13.31;75.08;101041.31;5011778;28;20037;-70
2022/12/28 06:33:52;;;;;;;11.52;9.45;;;;;;;13.27;75.35;101029.34;5010963;28;20061;-69
2022/12/28 06:36:23;;;;;;;9.35;7.70;;;;;;;12.88;76.36;101017.41;5006631;28;20034;-69
2022/12/28 06:38:50;;;;;;;11.27;9.13;;;;;;;13.21;75.03;101028.44;5009961;28;20055;-70
2022/12/28 06:41:17;;;;;;;10.18;8.38;;;;;;;13.10;75.98;101031.97;5008256;28;20037;-69
2022/12/28 06:43:44;;;;;;;7.50;6.20;;;;;;;12.98;76.05;101033.00;5009752;28;20033;-69
2022/12/28 06:46:11;;;;;;;11.43;7.28;;;;;;;13.09;75.19;101037.59;5009570;28;20037;-68
2022/12/28 06:48:36;;;;;;;13.75;8.98;;;;;;;13.10;76.40;101033.84;5010040;28;20042;-70
2022/12/28 06:51:05;;;;;;;12.20;9.57;;;;;;;13.49;75.15;101026.81;5012557;28;20042;-70
2022/12/28 06:53:33;;;;;;;11.60;9.75;;;;;;;13.92;72.45;101027.13;5013241;28;20056;-70
2022/12/28 06:56:01;;;;;;;14.68;9.10;;;;;;;13.47;74.30;101021.69;5012722;28;20085;-68
2022/12/28 06:58:28;;;;;;;11.68;10.43;;;;;;;13.45;74.63;101022.97;5013612;28;20038;-70
2022/12/28 07:00:54;;;;;;;12.25;10.15;;;;;;;13.30;74.74;101028.88;5013975;28;20045;-70
2022/12/28 07:03:21;;;;;;;13.70;11.07;;;;;;;13.82;73.62;101029.63;5014276;28;20034;-70
2022/12/28 07:05:46;;;;;;;13.60;10.20;;;;;;;13.67;74.06;101019.38;5014664;28;20048;-68
2022/12/28 07:08:12;;;;;;;11.75;10.02;;;;;;;13.16;75.52;101020.25;5012234;28;20050;-69
2022/12/28 07:10:37;;;;;;;14.82;11.15;;;;;;;13.41;74.37;101006.44;5013933;28;20397;-68
2022/12/28 07:13:04;;;;;;;14.10;11.48;;;;;;;13.38;75.10;101006.94;5012155;28;20025;-68
2022/12/28 07:15:30;;;;;;;12.93;10.32;;;;;;;13.44;74.64;101013.25;5013793;28;20041;-69
2022/12/28 07:17:57;;;;;;;12.73;10.93;;;;;;;13.40;74.45;101006.69;5013787;28;20494;-69
2022/12/28 07:20:22;;;;;;;15.25;10.50;;;;;;;13.88;73.02;101012.47;5014118;28;20085;-70
2022/12/28 07:22:48;;;;;;;17.23;11.63;;;;;;;13.78;73.33;101020.38;5014132;28;20037;-70
2022/12/28 07:25:13;;;;;;;13.40;10.45;;;;;;;13.70;73.13;101026.19;5014634;28;20398;-68
2022/12/28 07:27:38;;;;;;;16.55;10.52;;;;;;;13.66;73.72;101012.31;5014257;28;20034;-69
2022/12/28 07:30:04;;;;;;;11.98;10.70;;;;;;;13.88;72.98;101020.56;5013987;28;20121;-69
2022/12/28 07:32:30;;;;;;;13.60;10.50;;;;;;;14.16;72.09;101015.13;5014146;28;20106;-70
2022/12/28 07:34:55;;;;;;;14.25;10.70;;;;;;;13.64;74.23;101010.94;4995933;28;20182;-69
2022/12/28 07:37:20;;;;;;;11.13;8.95;;;;;;;13.39;75.50;101024.75;5011970;28;20401;-69
2022/12/28 07:39:46;;;;;;;15.05;10.30;;;;;;;13.89;74.69;101025.75;5013901;28;20088;-67
2022/12/28 07:42:11;;;;;;;10.38;9.20;;;;;;;13.65;75.01;101013.41;5014230;28;20397;-67
2022/12/28 07:44:40;;;;;;;11.23;8.68;;;;;;;13.25;76.67;101014.47;5014256;28;20112;-70
2022/12/28 07:47:06;;;;;;;13.88;9.02;;;;;;;13.47;75.41;101015.44;5012141;28;20026;-69
2022/12/28 07:49:31;;;;;;;10.52;9.38;;;;;;;13.74;74.23;101011.94;5013799;28;20045;-68
2022/12/28 07:51:57;;;;;;;13.13;10.05;;;;;;;14.15;72.88;101009.97;5014194;28;20434;-68
2022/12/28 07:54:22;;;;;;;10.50;9.38;;;;;;;13.75;73.88;101012.78;5013507;28;20089;-69
2022/12/28 07:56:47;;;;;;;14.95;10.15;;;;;;;14.07;72.47;101020.09;5028171;28;20121;-68
2022/12/28 07:59:13;;;;;;;9.43;8.48;;;;;;;14.01;73.97;101015.69;4995807;28;20097;-69
2022/12/28 08:01:38;;;;;;;8.82;7.95;;;;;;;14.26;72.13;101015.31;5013120;28;20080;-68
2022/12/28 08:04:11;;;;;;;9.75;8.07;;;;;;;13.85;74.65;101013.78;5013677;28;20022;-69
2022/12/28 08:06:39;;;;;;;12.98;8.60;;;;;;;14.28;73.06;101001.56;5013216;28;20109;-68
2022/12/28 08:09:06;;;;;;;9.93;8.93;;;;;;;13.98;73.91;101012.66;5012910;28;20165;-68
2022/12/28 08:11:35;;;;;;;9.30;6.63;;;;;;;13.74;76.00;100994.91;5013613;28;20375;-69
2022/12/28 08:14:01;;;;;;;9.95;8.00;;;;;;;13.79;75.24;101006.66;5013492;28;20364;-68
2022/12/28 08:16:30;;;;;;;10.00;8.77;;;;;;;14.06;75.25;101013.09;5012926;28;20041;-69
2022/12/28 08:18:55;;;;;;;12.23;8.80;;;;;;;13.94;74.79;101019.59;5013510;28;20427;-69
2022/12/28 08:21:25;;;;;;;10.98;8.43;;;;;;;13.93;74.46;101013.41;5013290;28;20124;-69
2022/12/28 08:23:51;;;;;;;9.52;7.80;;;;;;;14.19;73.87;101011.94;5012990;28;20052;-68
2022/12/28 08:26:19;;;;;;;9.93;8.32;;;;;;;14.11;73.97;101015.06;5012939;28;20046;-69
2022/12/28 08:28:46;;;;;;;9.40;8.38;;;;;;;14.29;73.37;101014.84;4995142;28;20041;-69
2022/12/28 08:31:14;;;;;;;9.63;7.70;;;;;;;13.75;75.29;101016.28;5013376;28;20553;-70
2022/12/28 08:33:40;;;;;;;9.35;7.80;;;;;;;13.97;74.30;101028.03;5012981;28;20425;-68
2022/12/28 08:36:06;;;;;;;13.23;9.30;;;;;;;14.22;73.50;101010.63;5012847;28;20037;-68
2022/12/28 08:38:32;;;;;;;10.05;8.70;;;;;;;14.28;74.25;101012.38;5012561;28;20046;-68
2022/12/28 08:41:01;;;;;;;9.07;8.13;;;;;;;13.53;76.70;101015.31;5012608;28;20037;-69
2022/12/28 08:43:28;;;;;;;12.52;8.48;;;;;;;13.48;77.05;101020.63;4993298;28;20074;-69
2022/12/28 08:45:59;;;;;;;11.00;9.82;;;;;;;13.71;76.20;101025.13;4976057;28;20085;-68
2022/12/28 08:48:25;;;;;;;13.48;9.23;;;;;;;14.03;74.78;101027.06;4992834;28;20097;-69
2022/12/28 08:50:50;;;;;;;12.10;10.23;;;;;;;14.57;72.41;101020.16;4992950;28;20030;-70
2022/12/28 08:53:15;;;;;;;12.55;9.18;;;;;;;13.67;76.72;101016.69;4992995;28;20122;-70
2022/12/28 08:55:41;;;;;;;13.60;10.75;;;;;;;13.75;76.79;101015.47;4992881;28;20034;-68
2022/12/28 08:58:06;;;;;;;15.32;11.52;;;;;;;14.08;74.95;101018.25;4993237;28;20502;-69
2022/12/28 09:00:32;;;;;;;16.08;12.02;;;;;;;13.94;75.21;101030.41;4999123;28;20145;-68
2022/12/28 09:02:58;;;;;;;15.68;11.68;;;;;;;14.08;74.37;101012.84;5012089;28;20059;-69
2022/12/28 09:05:23;;;;;;;14.60;10.25;;;;;;;13.80;74.86;101019.06;5009214;28;20041;-69
2022/12/28 09:07:50;;;;;;;12.20;10.82;;;;;;;13.79;76.32;101022.84;5009088;28;20050;-68
2022/12/28 09:10:16;;;;;;;12.05;10.77;;;;;;;13.84;75.68;101017.53;5008759;28;20068;-68
2022/12/28 09:12:41;;;;;;;18.20;11.35;;;;;;;14.22;74.97;101019.56;5023304;28;20142;-68
2022/12/28 09:15:07;;;;;;;14.07;11.05;;;;;;;14.19;73.98;101019.25;5026855;28;20037;-68
2022/12/28 09:17:33;;;;;;;15.70;11.70;;;;;;;14.17;74.71;101008.66;5007389;28;20037;-69
2022/12/28 09:19:58;;;;;;;12.70;11.38;;;;;;;13.85;75.08;101015.66;5008160;28;20044;-70
2022/12/28 09:22:23;;;;;;;12.18;10.85;;;;;;;14.39;73.87;101023.13;5008316;28;20109;-68
2022/12/28 09:24:49;;;;;;;11.27;10.18;;;;;;;13.94;74.73;101033.09;5024088;28;20021;-68
2022/12/28 09:27:14;;;;;;;14.55;11.38;;;;;;;14.27;74.38;101016.94;5027505;28;20048;-68
2022/12/28 09:29:39;;;;;;;12.20;10.45;;;;;;;14.27;73.19;101016.13;5028621;28;20124;-69
2022/12/28 09:32:05;;;;;;;19.63;10.63;;;;;;;14.13;75.02;101016.44;5027860;28;20108;-70
2022/12/28 09:34:31;;;;;;;16.80;10.88;;;;;;;14.45;73.16;101016.72;5027553;28;20284;-67
2022/12/28 09:36:56;;;;;;;12.45;11.15;;;;;;;14.44;73.06;101020.50;4991861;28;20129;-69
2022/12/28 09:39:23;;;;;;;11.75;10.50;;;;;;;14.93;71.94;101019.66;5007499;28;20383;-68
2022/12/28 09:41:57;;;;;;;11.68;10.30;;;;;;;14.57;72.19;101014.75;5008691;28;20041;-68
2022/12/28 09:44:56;;;;;;;14.43;9.75;;;;;;;14.78;71.99;101019.41;5008387;28;20124;-68
2022/12/28 09:47:30;;;;;;;16.90;10.23;;;;;;;14.51;72.28;101021.16;5007457;28;20125;-68
2022/12/28 09:50:03;;;;;;;14.35;10.82;;;;;;;14.43;73.34;101015.31;5007855;28;20402;-68
2022/12/28 09:52:45;;;;;;;10.48;9.35;;;;;;;14.25;74.61;101015.56;5007685;28;20044;-68
2022/12/28 09:55:16;;;;;;;10.85;9.52;;;;;;;14.45;73.36;101016.72;5007746;28;20052;-68
2022/12/28 09:57:49;;;;;;;11.98;9.90;;;;;;;13.88;76.64;101013.28;5008094;28;20089;-68
2022/12/28 10:00:23;;;;;;;11.63;8.10;;;;;;;14.33;74.70;101007.88;5014578;28;20033;-69
2022/12/28 10:02:53;;;;;;;10.25;8.48;;;;;;;14.16;75.01;101011.59;5020428;28;20030;-68
2022/12/28 10:05:20;;;;;;;9.45;8.55;;;;;;;14.44;73.63;101012.41;5007340;28;20038;-70
2022/12/28 10:07:45;;;;;;;10.23;9.27;;;;;;;14.31;74.60;101001.09;5020820;28;20057;-68
2022/12/28 10:10:21;;;;;;;10.35;7.75;;;;;;;14.49;73.78;101000.81;5017087;28;20432;-68
2022/12/28 10:12:48;;;;;;;8.48;7.65;;;;;;;14.07;75.24;101016.63;5027701;28;20049;-69
2022/12/28 10:15:14;;;;;;;8.77;7.55;;;;;;;14.29;74.35;101017.53;5023593;28;20047;-68
2022/12/28 10:17:41;;;;;;;8.63;7.63;;;;;;;14.49;73.30;101003.53;5018474;28;20102;-69
2022/12/28 10:20:14;;;;;;;8.77;7.50;;;;;;;14.70;73.21;101003.59;5024954;28;20063;-69
2022/12/28 10:22:41;;;;;;;8.70;7.72;;;;;;;14.57;72.88;101008.53;5022031;28;20042;-69
2022/12/28 10:25:15;;;;;;;8.77;7.60;;;;;;;14.97;71.88;101006.44;5011007;28;20048;-68
2022/12/28 10:27:42;;;;;;;8.68;7.82;;;;;;;14.64;73.31;101011.91;5024124;28;20480;-68
2022/12/28 10:30:25;;;;;;;9.90;7.78;;;;;;;14.32;74.35;101014.38;5024483;28;20037;-70
2022/12/28 10:32:56;;;;;;;9.98;7.25;;;;;;;14.47;74.13;101011.06;5020490;28;20045;-69
2022/12/28 10:35:23;;;;;;;;;;;;;;;14.45;73.08;101008.63;5022076;28;20347;-68
2022/12/28 10:37:48;;;;;;;8.18;6.30;;;;;;;14.42;73.23;101003.72;5024285;28;20385;-70
2022/12/28 10:40:27;;;;;;;7.72;6.50;;;;;;;14.41;74.08;100999.34;5022949;28;20120;-70
2022/12/28 10:42:54;;;;;;;9.52;7.55;;;;;;;14.73;72.64;100994.16;5021261;28;20033;-68
2022/12/28 10:45:37;;;;;;;9.25;7.70;;;;;;;15.05;72.08;100992.47;5004658;28;20044;-69
2022/12/28 10:48:16;;;;;;;9.25;7.50;;;;;;;15.04;72.31;100979.16;5023559;28;20095;-68
2022/12/28 10:50:52;;;;;;;8.60;5.82;;;;;;;14.71;72.07;100977.38;5024495;28;20033;-68
2022/12/28 10:53:39;;;;;;;6.07;5.50;;;;;;;14.57;73.69;100968.78;5023090;28;20033;-70
2022/12/28 10:56:13;;;;;;;5.90;5.38;;;;;;;15.08;72.31;100967.59;5012228;28;20046;-68
2022/12/28 10:58:40;;;;;;;6.85;6.22;;;;;;;14.65;73.14;100978.34;5006502;28;20065;-69
2022/12/28 11:01:22;;;;;;;6.90;5.82;;;;;;;14.60;73.25;100970.19;5007439;28;20022;-68
2022/12/28 11:03:56;;;;;;;6.35;5.75;;;;;;;14.48;73.38;100969.47;5006172;28;20113;-68
2022/12/28 11:06:24;;;;;;;6.15;5.55;;;;;;;14.59;73.53;100961.25;5005335;28;20042;-68
2022/12/28 11:08:58;;;;;;;6.65;5.95;;;;;;;14.43;74.32;100953.97;5005067;28;20050;-68
2022/12/28 11:11:24;;;;;;;6.95;6.22;;;;;;;14.83;72.25;100948.31;5004064;28;20070;-68
2022/12/28 11:14:02;;;;;;;8.82;6.75;;;;;;;14.69;72.33;100955.97;5006008;28;20077;-69
2022/12/28 11:16:32;;;;;;;6.78;6.10;;;;;;;14.43;73.75;100953.16;4988721;28;20034;-68
2022/12/28 11:18:57;;;;;;;6.93;5.38;;;;;;;14.21;75.60;100939.53;4988443;28;20466;-68
2022/12/28 11:21:22;;;;;;;4.85;4.18;;;;;;;13.64;76.23;100935.34;5005766;28;20096;-69
2022/12/28 11:23:50;;;;;;;7.13;5.45;;;;;;;14.13;74.88;100935.34;5005824;28;20052;-68
2022/12/28 11:26:16;;;;;;;6.88;5.45;;;;;;;14.39;74.15;100944.72;5005377;28;20026;-70
2022/12/28 11:28:44;;;;;;;5.97;5.22;;;;;;;14.47;73.83;100933.47;5006355;28;20034;-69
2022/12/28 11:31:22;;;;;;;8.38;5.43;;;;;;;14.88;71.99;100924.03;5006161;28;20018;-69
2022/12/28 11:33:51;;;;;;;8.85;5.88;;;;;;;14.38;74.34;100926.03;5006523;28;20038;-68
2022/12/28 11:36:21;;;;;;;5.05;4.55;;;;;;;14.35;74.55;100921.16;5010162;28;20097;-68
2022/12/28 11:38:49;;;;;;;7.90;4.78;;;;;;;14.09;74.35;100928.00;5008954;28;20125;-69
2022/12/28 11:41:24;;;;;;;8.05;5.18;;;;;;;14.54;73.98;100904.41;5013438;28;20529;-68
2022/12/28 11:43:57;;;;;;;5.00;4.47;;;;;;;14.53;73.22;100901.91;5023074;28;20036;-71
2022/12/28 11:46:23;;;;;;;7.07;4.93;;;;;;;14.43;74.19;100905.31;5033422;28;20083;-68
2022/12/28 11:48:56;;;;;;;4.45;4.05;;;;;;;14.52;72.88;100900.28;5034049;28;20037;-69
2022/12/28 11:51:27;;;;;;;6.10;3.83;;;;;;;14.12;75.56;100905.88;5033337;28;20280;-71
2022/12/28 11:53:54;;;;;;;4.47;3.80;;;;;;;14.70;73.26;100889.97;5033552;28;20406;-69
2022/12/28 11:56:25;;;;;;;3.38;3.08;;;;;;;13.87;75.68;100900.91;5020592;28;20041;-69